Time;durP1;ratioP1;P1;durP2;ratioP2;P2;SDS_P1;SDS_P2;PMS_P1;PMS_P2;Temp;Humidity;BMP_temperature;BMP_pressure;BME280_temperature;BME280_humidity;BME280_pressure;Samples;Min_cycle;Max_cycle;Signal;HPM_P1;HPM_P2
2022/08/07 00:01:45;;;;;;;12.57;8.50;;;10.70;99.90;;;;;;5095430;28;20047;-61
2022/08/07 00:04:11;;;;;;;12.18;8.32;;;10.70;99.90;;;;;;5093193;28;20044;-61
2022/08/07 00:06:38;;;;;;;13.27;8.93;;;10.70;99.90;;;;;;5078156;28;20060;-61
2022/08/07 00:09:04;;;;;;;11.13;7.55;;;10.70;99.90;;;;;;5078343;28;20541;-61
2022/08/07 00:11:30;;;;;;;13.38;8.95;;;10.60;99.90;;;;;;5078610;28;20047;-61
2022/08/07 00:13:56;;;;;;;10.18;7.97;;;10.60;99.90;;;;;;5095200;28;20509;-61
2022/08/07 00:16:23;;;;;;;10.70;7.97;;;10.60;99.90;;;;;;5095468;28;20046;-61
2022/08/07 00:18:49;;;;;;;13.30;8.85;;;10.60;99.90;;;;;;5095096;28;20086;-61
2022/08/07 00:21:15;;;;;;;13.27;9.40;;;10.60;99.90;;;;;;5095470;28;20105;-61
2022/08/07 00:23:41;;;;;;;17.60;11.23;;;10.60;99.90;;;;;;5094998;28;20111;-61
2022/08/07 00:26:09;;;;;;;18.52;9.73;;;10.60;99.90;;;;;;5113357;28;20050;-61
2022/08/07 00:28:35;;;;;;;13.50;8.65;;;10.50;99.90;;;;;;5095381;28;20352;-61
2022/08/07 00:31:04;;;;;;;10.25;7.22;;;10.50;99.90;;;;;;5078430;28;20039;-61
2022/08/07 00:33:30;;;;;;;13.32;9.38;;;10.50;99.90;;;;;;5111029;28;20102;-61
2022/08/07 00:35:56;;;;;;;20.20;11.02;;;10.50;99.90;;;;;;5095003;28;20075;-61
2022/08/07 00:38:23;;;;;;;16.08;10.27;;;10.40;99.90;;;;;;5112694;28;20039;-61
2022/08/07 00:40:49;;;;;;;14.30;9.27;;;10.40;99.90;;;;;;5113428;28;20036;-61
2022/08/07 00:43:15;;;;;;;13.45;9.80;;;10.40;99.90;;;;;;5094985;28;20050;-61
2022/08/07 00:45:42;;;;;;;14.77;9.00;;;10.40;99.90;;;;;;5113328;28;20035;-61
2022/08/07 00:48:09;;;;;;;14.43;8.95;;;10.40;99.90;;;;;;5078239;28;20043;-61
2022/08/07 00:50:36;;;;;;;14.45;9.27;;;10.40;99.90;;;;;;5094814;28;20081;-61
2022/08/07 00:53:02;;;;;;;11.77;7.53;;;10.40;99.90;;;;;;5094802;28;20055;-61
2022/08/07 00:55:28;;;;;;;9.48;6.10;;;10.40;99.90;;;;;;5113005;28;20039;-61
2022/08/07 00:57:54;;;;;;;8.68;5.85;;;10.40;99.90;;;;;;5094998;28;20122;-61
2022/08/07 01:00:21;;;;;;;9.55;6.72;;;10.40;99.90;;;;;;5095005;28;20028;-61
2022/08/07 01:02:47;;;;;;;9.95;6.50;;;10.30;99.90;;;;;;5113091;28;20062;-61
2022/08/07 01:05:12;;;;;;;10.57;6.57;;;10.30;99.90;;;;;;5092842;28;20085;-61
2022/08/07 01:07:40;;;;;;;8.98;6.68;;;10.20;99.90;;;;;;5094513;28;20058;-61
2022/08/07 01:10:07;;;;;;;11.38;8.30;;;10.10;99.90;;;;;;5113056;28;20047;-61
2022/08/07 01:12:34;;;;;;;9.32;6.93;;;10.20;99.90;;;;;;5112888;28;20489;-61
2022/08/07 01:15:01;;;;;;;10.57;7.35;;;10.10;99.90;;;;;;5094728;28;20035;-61
2022/08/07 01:17:27;;;;;;;11.85;8.20;;;10.10;99.90;;;;;;5111879;28;20050;-61
2022/08/07 01:20:00;;;;;;;11.35;7.93;;;10.00;99.90;;;;;;5094453;28;20041;-61
2022/08/07 01:22:26;;;;;;;19.48;11.10;;;10.00;99.90;;;;;;5113035;28;20036;-61
2022/08/07 01:24:53;;;;;;;15.73;9.82;;;10.00;99.90;;;;;;5093520;28;20108;-61
2022/08/07 01:27:19;;;;;;;15.40;9.85;;;10.00;99.90;;;;;;5111820;28;20508;-61
2022/08/07 01:29:45;;;;;;;14.25;9.05;;;9.90;99.90;;;;;;5093514;28;20090;-61
2022/08/07 01:32:11;;;;;;;14.40;8.43;;;10.00;99.90;;;;;;5076641;28;20043;-61
2022/08/07 01:34:37;;;;;;;13.00;8.88;;;9.90;99.90;;;;;;5090861;28;20047;-61
2022/08/07 01:37:03;;;;;;;9.77;6.90;;;10.00;99.90;;;;;;5093447;28;20032;-61
2022/08/07 01:39:29;;;;;;;13.32;8.57;;;9.90;99.90;;;;;;5093352;28;20140;-61
2022/08/07 01:41:55;;;;;;;12.20;7.88;;;9.90;99.90;;;;;;5093348;28;20085;-61
2022/08/07 01:44:21;;;;;;;13.00;8.52;;;9.90;99.90;;;;;;5093683;28;20085;-61
2022/08/07 01:46:47;;;;;;;8.68;6.90;;;9.90;99.90;;;;;;5111542;28;20514;-61
2022/08/07 01:49:13;;;;;;;16.20;8.77;;;9.90;99.90;;;;;;5096068;28;20048;-61
2022/08/07 01:51:42;;;;;;;9.90;7.00;;;9.90;99.90;;;;;;5097052;28;20035;-61
2022/08/07 01:54:12;;;;;;;15.63;9.48;;;9.90;99.90;;;;;;5080219;28;20031;-61
2022/08/07 01:57:01;;;;;;;10.55;8.02;;;9.90;99.90;;;;;;5096840;28;20512;-61
2022/08/07 01:59:34;;;;;;;12.95;8.57;;;9.80;99.90;;;;;;5096985;28;20042;-61
2022/08/07 02:02:11;;;;;;;13.48;9.05;;;9.80;99.90;;;;;;5114917;28;20503;-61
2022/08/07 02:04:46;;;;;;;13.95;8.88;;;9.80;99.90;;;;;;5094649;28;20396;-61
2022/08/07 02:07:14;;;;;;;12.13;8.00;;;9.80;99.90;;;;;;5096533;28;20097;-61
2022/08/07 02:09:44;;;;;;;11.20;7.70;;;9.80;99.90;;;;;;5096942;28;20149;-61
2022/08/07 02:12:19;;;;;;;14.02;9.60;;;9.70;99.90;;;;;;5096610;28;20048;-61
2022/08/07 02:14:56;;;;;;;16.83;11.57;;;9.70;99.90;;;;;;5115079;28;20039;-61
2022/08/07 02:17:24;;;;;;;14.82;9.32;;;9.70;99.90;;;;;;5114879;28;20047;-61
2022/08/07 02:19:51;;;;;;;13.70;9.73;;;9.60;99.90;;;;;;5096635;28;20461;-61
2022/08/07 02:22:22;;;;;;;13.02;8.38;;;9.70;99.90;;;;;;5079626;28;20062;-61
2022/08/07 02:24:51;;;;;;;11.35;8.77;;;9.70;99.90;;;;;;5096513;28;20376;-61
2022/08/07 02:27:20;;;;;;;13.70;8.80;;;9.60;99.90;;;;;;5096313;28;20044;-61
2022/08/07 02:29:48;;;;;;;12.23;8.70;;;9.60;99.90;;;;;;5114801;28;20073;-61
2022/08/07 02:32:16;;;;;;;14.15;9.77;;;9.60;99.90;;;;;;5096104;28;20035;-61
2022/08/07 02:34:44;;;;;;;14.98;8.75;;;9.60;99.90;;;;;;5093750;28;20031;-61
2022/08/07 02:37:11;;;;;;;15.25;9.93;;;9.60;99.90;;;;;;5114235;28;20480;-61
2022/08/07 02:39:44;;;;;;;12.27;9.23;;;9.50;99.90;;;;;;5096309;28;20089;-61
2022/08/07 02:42:12;;;;;;;14.20;9.45;;;9.50;99.90;;;;;;5096241;28;20039;-61
2022/08/07 02:44:43;;;;;;;14.98;9.88;;;9.50;99.90;;;;;;5114441;28;20118;-61
2022/08/07 02:47:10;;;;;;;13.55;8.85;;;9.50;99.90;;;;;;5095966;28;20124;-61
2022/08/07 02:49:36;;;;;;;11.82;8.68;;;9.50;99.90;;;;;;5114164;28;20050;-61
2022/08/07 02:52:05;;;;;;;12.80;8.88;;;9.50;99.90;;;;;;5112723;28;20040;-61
2022/08/07 02:54:33;;;;;;;12.90;8.35;;;9.50;99.90;;;;;;5095778;28;20039;-61
2022/08/07 02:57:01;;;;;;;13.70;9.20;;;9.60;99.90;;;;;;5113131;28;20391;-61
2022/08/07 02:59:28;;;;;;;11.50;8.13;;;9.60;99.90;;;;;;5095082;28;20035;-61
2022/08/07 03:01:55;;;;;;;11.90;8.57;;;9.60;99.90;;;;;;5113799;28;20040;-61
2022/08/07 03:04:22;;;;;;;10.73;7.32;;;9.60;99.90;;;;;;5093195;28;20122;-61
2022/08/07 03:06:50;;;;;;;9.00;6.60;;;9.60;99.90;;;;;;5095554;28;20048;-61
2022/08/07 03:09:18;;;;;;;9.73;6.30;;;9.60;99.90;;;;;;5095774;28;20043;-61
2022/08/07 03:11:44;;;;;;;9.95;6.18;;;9.60;99.90;;;;;;5095485;28;20082;-61
2022/08/07 03:14:12;;;;;;;9.02;6.50;;;9.60;99.90;;;;;;5095691;28;20044;-61
2022/08/07 03:16:39;;;;;;;7.47;6.05;;;9.50;99.90;;;;;;5095436;28;20048;-61
2022/08/07 03:19:07;;;;;;;6.53;4.95;;;9.50;99.90;;;;;;5113559;28;20048;-61
2022/08/07 03:21:32;;;;;;;5.82;4.53;;;9.50;99.90;;;;;;5113654;28;20453;-62
2022/08/07 03:23:59;;;;;;;6.40;4.65;;;9.40;99.90;;;;;;5095287;28;20047;-61
2022/08/07 03:26:29;;;;;;;8.57;5.43;;;9.40;99.90;;;;;;5095371;28;20074;-62
2022/08/07 03:28:57;;;;;;;6.88;5.47;;;9.40;99.90;;;;;;5078207;28;20071;-61
2022/08/07 03:31:25;;;;;;;9.13;6.28;;;9.40;99.90;;;;;;5095146;28;20487;-62
2022/08/07 03:34:00;;;;;;;7.55;4.30;;;9.40;99.90;;;;;;5110739;28;20036;-61
2022/08/07 03:36:28;;;;;;;5.68;4.68;;;9.30;99.90;;;;;;5111851;28;20104;-61
2022/08/07 03:38:59;;;;;;;8.13;5.63;;;9.30;99.90;;;;;;5112891;28;20559;-61
2022/08/07 03:41:27;;;;;;;7.78;5.38;;;9.30;99.90;;;;;;5095817;28;20031;-61
2022/08/07 03:43:53;;;;;;;5.55;3.92;;;9.30;99.90;;;;;;5095668;28;20047;-61
2022/08/07 03:46:20;;;;;;;4.63;2.53;;;9.30;99.90;;;;;;5078754;28;20099;-61
2022/08/07 03:48:46;;;;;;;3.85;2.90;;;9.40;99.90;;;;;;5079114;28;20131;-62
2022/08/07 03:51:12;;;;;;;5.00;3.40;;;9.40;99.90;;;;;;5078497;28;20100;-61
2022/08/07 03:53:38;;;;;;;4.78;3.40;;;9.30;99.90;;;;;;5095686;28;20149;-61
2022/08/07 03:56:05;;;;;;;4.70;3.30;;;9.30;99.90;;;;;;5095763;28;20134;-61
2022/08/07 03:58:31;;;;;;;3.65;2.75;;;9.30;99.90;;;;;;5095509;28;20047;-62
2022/08/07 04:00:58;;;;;;;4.22;3.10;;;9.30;99.90;;;;;;5078883;28;20360;-62
2022/08/07 04:03:25;;;;;;;5.35;2.95;;;9.30;99.90;;;;;;5111629;28;20031;-61
2022/08/07 04:05:51;;;;;;;5.82;3.15;;;9.30;99.90;;;;;;5113757;28;20040;-62
2022/08/07 04:08:17;;;;;;;5.50;4.05;;;9.20;99.90;;;;;;5095253;28;20137;-62
2022/08/07 04:10:44;;;;;;;7.40;4.95;;;9.20;99.90;;;;;;5095419;28;20051;-61
2022/08/07 04:13:12;;;;;;;5.85;4.07;;;9.10;99.90;;;;;;5094427;28;20047;-61
2022/08/07 04:15:38;;;;;;;6.85;4.72;;;9.10;99.90;;;;;;5095355;28;20122;-62
2022/08/07 04:18:04;;;;;;;8.70;5.03;;;9.10;99.90;;;;;;5095552;28;20062;-61
2022/08/07 04:20:30;;;;;;;8.05;6.13;;;9.00;99.90;;;;;;5078365;28;20039;-62
2022/08/07 04:22:57;;;;;;;8.93;5.75;;;9.00;99.90;;;;;;5095198;28;20551;-62
2022/08/07 04:25:25;;;;;;;10.60;7.40;;;9.00;99.90;;;;;;5113301;28;20055;-62
2022/08/07 04:27:51;;;;;;;10.85;7.05;;;9.00;99.90;;;;;;5113168;28;20122;-61
2022/08/07 04:30:17;;;;;;;12.98;7.03;;;9.00;99.90;;;;;;5113581;28;20375;-61
2022/08/07 04:32:44;;;;;;;10.43;7.47;;;9.00;99.90;;;;;;5113205;28;20105;-61
2022/08/07 04:35:11;;;;;;;10.60;8.15;;;9.00;99.90;;;;;;5093131;28;20051;-61
2022/08/07 04:37:37;;;;;;;14.10;8.07;;;9.10;99.90;;;;;;5095161;28;20410;-62
2022/08/07 04:40:04;;;;;;;10.82;7.80;;;9.10;99.90;;;;;;5094458;28;20058;-62
2022/08/07 04:42:33;;;;;;;7.72;5.90;;;9.10;99.90;;;;;;5112069;28;20043;-61
2022/08/07 04:45:01;;;;;;;9.18;7.00;;;9.10;99.90;;;;;;5094017;28;20042;-61
2022/08/07 04:47:33;;;;;;;10.15;7.53;;;9.20;99.90;;;;;;5112298;28;20400;-62
2022/08/07 04:50:12;;;;;;;10.55;7.90;;;9.20;99.90;;;;;;5094068;28;20051;-62
2022/08/07 04:53:06;;;;;;;9.52;6.75;;;9.20;99.90;;;;;;5076989;28;20059;-61
2022/08/07 04:55:36;;;;;;;11.10;6.60;;;9.20;99.90;;;;;;5094181;28;20039;-61
2022/08/07 04:58:35;;;;;;;13.93;7.00;;;9.20;99.90;;;;;;5093783;28;20067;-61
2022/08/07 05:01:09;;;;;;;11.57;8.15;;;9.30;99.90;;;;;;5070990;28;20101;-61
2022/08/07 05:04:01;;;;;;;11.63;8.80;;;9.40;99.90;;;;;;5109517;28;20039;-61
2022/08/07 05:06:47;;;;;;;14.60;8.90;;;9.40;99.90;;;;;;5093863;28;20057;-61
2022/08/07 05:09:25;;;;;;;14.65;9.10;;;9.60;99.90;;;;;;5076512;28;20048;-61
2022/08/07 05:11:52;;;;;;;13.68;9.00;;;9.60;99.90;;;;;;5076814;28;20055;-62
2022/08/07 05:14:30;;;;;;;16.33;9.75;;;9.70;99.90;;;;;;5093739;28;20530;-61
2022/08/07 05:17:01;;;;;;;15.45;9.45;;;9.80;99.90;;;;;;5076745;28;20040;-61
2022/08/07 05:19:34;;;;;;;15.52;10.02;;;9.90;99.90;;;;;;5112067;28;20035;-61
2022/08/07 05:22:01;;;;;;;14.98;9.57;;;10.00;99.90;;;;;;5093444;28;20123;-61
2022/08/07 05:24:30;;;;;;;15.45;9.38;;;10.10;99.90;;;;;;5097326;28;20062;-61
2022/08/07 05:26:58;;;;;;;17.38;10.75;;;10.30;99.90;;;;;;5115665;28;20040;-61
2022/08/07 05:29:25;;;;;;;15.55;9.38;;;10.40;99.90;;;;;;5115733;28;20079;-61
2022/08/07 05:31:51;;;;;;;13.10;8.52;;;10.50;99.90;;;;;;5115600;28;20040;-61
2022/08/07 05:34:18;;;;;;;12.63;9.05;;;10.60;99.90;;;;;;5077871;28;20059;-61
2022/08/07 05:36:55;;;;;;;15.85;9.57;;;10.80;99.90;;;;;;5097666;28;20487;-61
2022/08/07 05:39:22;;;;;;;14.10;8.35;;;11.00;99.90;;;;;;5115569;28;20062;-61
2022/08/07 05:41:50;;;;;;;14.82;9.27;;;11.10;99.90;;;;;;5097235;28;20047;-61
2022/08/07 05:44:19;;;;;;;12.27;8.93;;;11.30;99.90;;;;;;5115476;28;20078;-61
2022/08/07 05:46:49;;;;;;;12.35;8.35;;;11.50;99.90;;;;;;5097219;28;20040;-61
2022/08/07 05:49:16;;;;;;;17.08;9.82;;;11.60;99.90;;;;;;5080287;28;20036;-62
2022/08/07 05:51:44;;;;;;;12.45;8.73;;;11.80;99.90;;;;;;5115367;28;20046;-62
2022/08/07 05:54:10;;;;;;;15.80;9.65;;;11.90;99.90;;;;;;5114906;28;20039;-62
2022/08/07 05:56:39;;;;;;;12.35;9.45;;;12.10;99.90;;;;;;5097216;28;20112;-62
2022/08/07 05:59:11;;;;;;;13.88;9.20;;;12.20;99.90;;;;;;5115171;28;20032;-62
2022/08/07 06:01:39;;;;;;;15.25;8.85;;;12.40;99.90;;;;;;5096667;28;20055;-61
2022/08/07 06:04:07;;;;;;;15.80;9.27;;;12.60;99.90;;;;;;5094268;28;20400;-62
2022/08/07 06:06:34;;;;;;;11.32;8.00;;;12.80;99.90;;;;;;5076646;28;20054;-61
2022/08/07 06:09:00;;;;;;;11.18;8.60;;;13.10;99.90;;;;;;5096360;28;20044;-61
2022/08/07 06:11:27;;;;;;;15.05;9.48;;;13.30;99.90;;;;;;5096818;28;20244;-62
2022/08/07 06:13:53;;;;;;;14.95;8.85;;;13.50;99.90;;;;;;5093551;28;20040;-62
2022/08/07 06:16:21;;;;;;;15.85;9.48;;;13.70;99.90;;;;;;5088455;28;20035;-61
2022/08/07 06:18:48;;;;;;;15.50;9.02;;;13.90;99.90;;;;;;5106428;28;20038;-62
2022/08/07 06:21:14;;;;;;;12.48;9.07;;;14.10;99.90;;;;;;5111727;28;20064;-62
2022/08/07 06:23:40;;;;;;;12.65;9.00;;;14.30;99.90;;;;;;5094111;28;20049;-61
2022/08/07 06:26:10;;;;;;;15.43;9.55;;;14.50;99.90;;;;;;5092141;28;20047;-61
2022/08/07 06:28:49;;;;;;;12.43;9.40;;;14.70;99.90;;;;;;5095470;28;20540;-62
2022/08/07 06:31:15;;;;;;;12.45;9.30;;;15.00;99.90;;;;;;5115227;28;20118;-61
2022/08/07 06:33:41;;;;;;;13.63;9.68;;;15.30;99.90;;;;;;5092907;28;20421;-62
2022/08/07 06:36:08;;;;;;;11.02;8.80;;;15.50;99.90;;;;;;5114204;28;20036;-62
2022/08/07 06:38:34;;;;;;;12.35;8.90;;;15.90;99.90;;;;;;5109175;27;20067;-62
2022/08/07 06:41:03;;;;;;;13.93;8.90;;;16.10;99.90;;;;;;5110196;28;20449;-62
2022/08/07 06:43:34;;;;;;;11.48;8.52;;;16.50;99.90;;;;;;5107654;28;20067;-62
2022/08/07 06:46:01;;;;;;;12.70;8.57;;;16.80;99.90;;;;;;5094868;28;20044;-62
2022/08/07 06:48:27;;;;;;;11.85;8.85;;;17.20;99.90;;;;;;5079702;28;20503;-62
2022/08/07 06:50:56;;;;;;;9.82;8.30;;;17.50;99.90;;;;;;5096880;28;20135;-62
2022/08/07 06:53:24;;;;;;;11.60;8.00;;;17.80;99.90;;;;;;5096389;28;20044;-62
2022/08/07 06:55:51;;;;;;;9.55;6.68;;;18.10;99.90;;;;;;5114612;28;20044;-62
2022/08/07 06:58:19;;;;;;;10.05;6.80;;;18.40;99.90;;;;;;5079881;28;20088;-62
2022/08/07 07:00:45;;;;;;;8.93;5.93;;;18.60;99.90;;;;;;5095575;28;20035;-62
2022/08/07 07:03:12;;;;;;;8.88;6.00;;;18.90;99.90;;;;;;5109568;28;20487;-62
2022/08/07 07:05:39;;;;;;;9.55;6.05;;;19.00;99.90;;;;;;5112131;28;20036;-62
2022/08/07 07:08:05;;;;;;;7.72;5.28;;;19.20;99.90;;;;;;5111857;28;20047;-63
2022/08/07 07:10:34;;;;;;;5.95;5.30;;;19.50;99.90;;;;;;5111881;28;20031;-62
2022/08/07 07:13:12;;;;;;;8.95;4.80;;;19.70;99.90;;;;;;5108267;28;20039;-62
2022/08/07 07:15:45;;;;;;;5.57;3.92;;;19.90;99.90;;;;;;5109149;28;20047;-62
2022/08/07 07:18:14;;;;;;;3.90;3.10;;;20.00;99.90;;;;;;5111980;28;20155;-62
2022/08/07 07:20:55;;;;;;;4.73;3.37;;;20.20;99.90;;;;;;5094420;28;20102;-62
2022/08/07 07:23:21;;;;;;;4.90;3.40;;;20.40;99.90;;;;;;5109838;28;20101;-62
2022/08/07 07:25:51;;;;;;;3.60;2.90;;;20.50;99.90;;;;;;5077023;28;20112;-63
2022/08/07 07:28:23;;;;;;;4.75;3.50;;;20.70;99.90;;;;;;5094011;28;20039;-64
2022/08/07 07:31:03;;;;;;;4.80;2.58;;;20.80;99.90;;;;;;5093465;28;20035;-63
2022/08/07 07:33:32;;;;;;;5.93;3.10;;;21.00;99.90;;;;;;5110641;28;20207;-63
2022/08/07 07:36:00;;;;;;;4.78;3.15;;;21.20;99.90;;;;;;5113664;28;20553;-64
2022/08/07 07:38:26;;;;;;;4.38;2.50;;;21.30;99.90;;;;;;5095883;28;20036;-62
2022/08/07 07:40:59;;;;;;;4.10;2.85;;;21.30;99.90;;;;;;5095504;28;20043;-62
2022/08/07 07:43:28;;;;;;;4.47;2.75;;;21.30;99.90;;;;;;5076210;28;20523;-62
2022/08/07 07:45:53;;;;;;;7.47;3.00;;;21.20;99.90;;;;;;5083698;28;20385;-62
2022/08/07 07:48:24;;;;;;;3.07;2.30;;;21.20;99.90;;;;;;5114101;28;20039;-62
2022/08/07 07:50:53;;;;;;;4.05;2.95;;;21.20;99.90;;;;;;5095495;28;20051;-63
2022/08/07 07:53:22;;;;;;;4.93;3.33;;;21.20;99.90;;;;;;5095391;28;20050;-62
2022/08/07 07:55:54;;;;;;;5.90;3.28;;;21.30;99.90;;;;;;5113769;28;20040;-62
2022/08/07 07:58:21;;;;;;;4.20;2.83;;;21.30;99.90;;;;;;5112375;28;20050;-63
2022/08/07 08:00:49;;;;;;;3.15;2.10;;;21.40;99.90;;;;;;5113630;28;20416;-62
2022/08/07 08:03:18;;;;;;;3.25;2.15;;;21.40;99.90;;;;;;5110219;28;20044;-62
2022/08/07 08:05:44;;;;;;;3.72;2.35;;;21.50;99.90;;;;;;5113343;28;20097;-63
2022/08/07 08:08:11;;;;;;;4.43;2.55;;;21.70;99.90;;;;;;5111636;28;20576;-62
2022/08/07 08:10:39;;;;;;;5.10;2.40;;;21.80;99.90;;;;;;5109324;28;20492;-63
2022/08/07 08:13:07;;;;;;;3.72;2.55;;;21.80;99.90;;;;;;5112887;28;20114;-62
2022/08/07 08:15:37;;;;;;;4.25;2.53;;;21.90;99.90;;;;;;5112503;28;20035;-62
2022/08/07 08:18:05;;;;;;;;;;;22.00;99.90;;;;;;5114212;28;20028;-63
2022/08/07 08:20:33;;;;;;;5.55;2.38;;;22.20;99.90;;;;;;5113139;28;19919;-62
2022/08/07 08:28:43;;;;;;;4.25;2.40;;;22.80;99.90;;;;;;5111348;28;19951;-59
2022/08/07 08:31:34;;;;;;;3.30;2.53;;;23.00;99.90;;;;;;5096247;28;20078;-60
2022/08/07 08:34:04;;;;;;;4.28;2.80;;;23.20;99.90;;;;;;5109905;28;20044;-60
2022/08/07 08:36:34;;;;;;;3.10;2.47;;;23.30;99.90;;;;;;5113240;28;20092;-60
2022/08/07 08:39:02;;;;;;;3.67;2.60;;;23.30;99.90;;;;;;5111937;28;20050;-59
2022/08/07 08:42:02;;;;;;;4.65;2.58;;;23.60;99.90;;;;;;5113053;28;20058;-59
2022/08/07 08:44:40;;;;;;;;;;;23.90;99.00;;;;;;5112305;28;20031;-59
2022/08/07 08:47:24;;;;;;;4.97;2.53;;;23.90;99.60;;;;;;5113065;28;20044;-60
2022/08/07 08:50:08;;;;;;;5.72;3.17;;;24.00;97.90;;;;;;5094679;28;20100;-59
2022/08/07 08:52:41;;;;;;;3.40;2.58;;;24.10;98.10;;;;;;5112830;28;20035;-61
2022/08/07 08:55:25;;;;;;;3.85;2.97;;;24.40;98.20;;;;;;5077927;28;20392;-60
2022/08/07 08:58:14;;;;;;;5.22;3.28;;;24.80;96.90;;;;;;5095487;28;20040;-60
2022/08/07 09:00:46;;;;;;;4.70;2.60;;;24.70;96.30;;;;;;5098785;28;20039;-60
2022/08/07 09:03:33;;;;;;;4.75;2.58;;;24.90;96.70;;;;;;5114559;28;20040;-60
2022/08/07 09:06:16;;;;;;;2.78;2.20;;;25.20;96.00;;;;;;5098409;28;20035;-60
2022/08/07 09:09:01;;;;;;;3.50;2.20;;;25.60;95.00;;;;;;5116766;28;20601;-60
2022/08/07 09:11:26;;;;;;;4.32;2.22;;;25.50;93.40;;;;;;5098318;28;20059;-61
2022/08/07 09:13:58;;;;;;;2.47;1.98;;;25.50;92.10;;;;;;5098858;28;20039;-69
2022/08/07 09:16:46;;;;;;;7.97;2.70;;;25.30;91.90;;;;;;5098824;28;20039;-70
2022/08/07 09:19:34;;;;;;;4.97;2.40;;;25.30;91.60;;;;;;5116644;28;20058;-70
2022/08/07 09:22:46;;;;;;;4.20;2.38;;;25.50;91.60;;;;;;5116376;28;20062;-69
2022/08/07 09:25:21;;;;;;;3.97;2.40;;;25.50;91.40;;;;;;5079011;28;20101;-70
2022/08/07 09:27:56;;;;;;;10.00;3.40;;;25.40;90.60;;;;;;5116039;28;20476;-69
2022/08/07 09:30:26;;;;;;;4.07;2.65;;;25.20;90.90;;;;;;5098211;28;20043;-70
2022/08/07 09:33:22;;;;;;;4.22;2.55;;;25.30;91.70;;;;;;5115181;28;20345;-70
2022/08/07 09:36:08;;;;;;;2.70;2.00;;;25.50;91.60;;;;;;5080547;28;20418;-70
2022/08/07 09:38:44;;;;;;;3.42;2.25;;;25.60;90.70;;;;;;5097189;28;20046;-70
2022/08/07 09:41:16;;;;;;;3.42;2.13;;;25.50;90.00;;;;;;5097265;28;20035;-69
2022/08/07 09:44:18;;;;;;;2.65;2.20;;;24.80;88.90;;;;;;5113724;28;20537;-69
2022/08/07 09:47:04;;;;;;;5.40;2.85;;;23.90;90.60;;;;;;5114609;28;20375;-69
2022/08/07 09:49:42;;;;;;;11.07;2.50;;;23.40;90.70;;;;;;5098094;28;20111;-69
2022/08/07 09:52:19;;;;;;;6.60;2.35;;;23.10;91.50;;;;;;5114284;28;20495;-69
2022/08/07 09:54:53;;;;;;;3.72;2.63;;;23.40;92.30;;;;;;5116016;28;20050;-69
2022/08/07 09:57:37;;;;;;;8.00;2.70;;;23.50;91.30;;;;;;5097888;28;20042;-69
2022/08/07 10:00:15;;;;;;;4.25;2.65;;;23.30;91.90;;;;;;5115841;28;20067;-68
2022/08/07 10:02:49;;;;;;;3.78;2.00;;;23.70;92.90;;;;;;5114879;28;20039;-68
2022/08/07 10:05:43;;;;;;;4.40;2.13;;;24.30;91.60;;;;;;5094100;28;20043;-69
2022/08/07 10:09:00;;;;;;;3.10;2.17;;;24.80;90.10;;;;;;5114443;28;20116;-67
2022/08/07 10:12:00;;;;;;;3.25;2.05;;;25.50;90.40;;;;;;5059154;28;20047;-66
2022/08/07 10:14:53;;;;;;;5.82;2.45;;;25.60;86.60;;;;;;5114814;28;20050;-71
2022/08/07 10:17:28;;;;;;;2.50;2.17;;;25.20;86.40;;;;;;5114133;28;20052;-68
2022/08/07 10:19:54;;;;;;;4.60;2.10;;;24.70;87.30;;;;;;5115317;28;20067;-66
2022/08/07 10:22:34;;;;;;;6.60;2.58;;;24.80;87.20;;;;;;5115332;28;20071;-69
2022/08/07 10:25:50;;;;;;;5.78;3.10;;;25.20;86.60;;;;;;5101614;28;20507;-70
2022/08/07 10:28:43;;;;;;;4.28;2.70;;;25.70;87.20;;;;;;5014191;28;20038;-69
2022/08/07 10:31:29;;;;;;;3.47;2.50;;;25.40;85.40;;;;;;5015467;28;20502;-69
2022/08/07 10:34:13;;;;;;;4.75;2.58;;;25.20;85.50;;;;;;5080459;28;20051;-70
2022/08/07 10:37:06;;;;;;;3.78;2.25;;;25.40;87.60;;;;;;5114175;28;20071;-70
2022/08/07 10:39:53;;;;;;;3.88;2.60;;;25.70;85.40;;;;;;5109137;28;20483;-70
2022/08/07 10:42:33;;;;;;;4.13;2.90;;;26.00;82.90;;;;;;5113692;28;20035;-69
2022/08/07 10:45:30;;;;;;;3.38;2.70;;;26.10;81.60;;;;;;5096844;28;20618;-69
2022/08/07 10:48:17;;;;;;;3.90;2.75;;;26.40;83.20;;;;;;5114047;28;20082;-71
2022/08/07 10:50:51;;;;;;;3.97;2.60;;;26.50;81.20;;;;;;5113992;28;20425;-71
2022/08/07 10:53:27;;;;;;;3.53;2.58;;;26.70;80.90;;;;;;5114370;28;20574;-72
2022/08/07 10:56:32;;;;;;;3.65;2.55;;;26.50;80.10;;;;;;5114020;28;20367;-72
2022/08/07 10:59:16;;;;;;;6.40;3.13;;;26.00;81.00;;;;;;5114930;28;20383;-70
2022/08/07 11:01:57;;;;;;;3.53;2.30;;;25.90;82.40;;;;;;5113490;28;20499;-71
2022/08/07 11:05:07;;;;;;;4.25;2.85;;;26.20;80.90;;;;;;5094548;28;20099;-70
2022/08/07 11:07:55;;;;;;;4.97;2.60;;;26.50;81.70;;;;;;5081209;28;20116;-69
2022/08/07 11:10:42;;;;;;;5.25;3.00;;;26.90;80.20;;;;;;5112979;28;20507;-70
2022/08/07 11:13:30;;;;;;;5.10;3.13;;;27.10;81.20;;;;;;5114333;28;20369;-70
2022/08/07 11:16:03;;;;;;;5.13;2.45;;;27.20;81.00;;;;;;5113055;28;20122;-71
2022/08/07 11:18:48;;;;;;;4.65;2.42;;;27.20;79.70;;;;;;5114054;28;20118;-69
2022/08/07 11:21:51;;;;;;;3.05;2.20;;;27.20;79.00;;;;;;5113664;28;20039;-70
2022/08/07 11:24:24;;;;;;;3.28;2.25;;;27.40;76.90;;;;;;5095831;28;20075;-69
2022/08/07 11:27:02;;;;;;;6.18;2.50;;;27.40;74.30;;;;;;5095927;28;20054;-70
2022/08/07 11:29:37;;;;;;;3.85;2.55;;;27.20;73.10;;;;;;5113152;28;20369;-69
2022/08/07 11:32:55;;;;;;;3.65;2.53;;;26.90;73.00;;;;;;5078947;28;20082;-70
2022/08/07 11:35:28;;;;;;;4.57;2.45;;;26.50;75.90;;;;;;5111740;28;20039;-70
2022/08/07 11:38:09;;;;;;;5.22;2.78;;;25.80;75.90;;;;;;5113802;28;20525;-70
2022/08/07 11:40:50;;;;;;;2.72;2.08;;;25.50;76.10;;;;;;5095696;28;20039;-70
2022/08/07 11:43:29;;;;;;;5.53;2.75;;;25.60;76.40;;;;;;5113604;28;20040;-70
2022/08/07 11:46:07;;;;;;;;;;;25.80;74.80;;;;;;5114521;28;20376;-70
2022/08/07 11:48:58;;;;;;;3.42;2.45;;;25.90;76.00;;;;;;5113723;28;19938;-69
2022/08/07 11:51:36;;;;;;;4.28;2.42;;;26.00;78.70;;;;;;5112347;28;20100;-71
2022/08/07 11:54:11;;;;;;;3.90;2.33;;;26.10;78.00;;;;;;5113627;28;20491;-70
2022/08/07 11:57:01;;;;;;;4.82;3.05;;;26.30;75.00;;;;;;5113854;28;20078;-70
2022/08/07 11:59:55;;;;;;;3.22;2.63;;;26.40;73.90;;;;;;5112564;28;20124;-68
2022/08/07 12:02:40;;;;;;;4.80;3.40;;;26.30;76.40;;;;;;5112494;28;20085;-66
2022/08/07 12:05:08;;;;;;;4.53;3.20;;;26.30;74.10;;;;;;5110060;28;20082;-70
2022/08/07 12:07:54;;;;;;;4.90;3.38;;;26.00;74.20;;;;;;5111969;28;20055;-70
2022/08/07 12:10:25;;;;;;;4.78;3.08;;;25.80;79.10;;;;;;5112306;28;20498;-70
2022/08/07 12:13:01;;;;;;;4.57;2.80;;;25.70;80.00;;;;;;5094996;28;20039;-70
2022/08/07 12:15:33;;;;;;;5.82;3.33;;;25.60;78.30;;;;;;5112415;28;20415;-70
2022/08/07 12:18:24;;;;;;;4.07;2.70;;;25.60;78.40;;;;;;5112833;28;20133;-70
2022/08/07 12:21:08;;;;;;;5.80;3.40;;;25.60;79.00;;;;;;5088004;28;20093;-68
2022/08/07 12:24:00;;;;;;;4.80;3.10;;;25.50;79.50;;;;;;5081128;28;20512;-70
2022/08/07 12:27:02;;;;;;;4.07;2.70;;;25.40;77.50;;;;;;5041317;28;20083;-70
2022/08/07 12:29:55;;;;;;;5.82;3.58;;;25.20;75.80;;;;;;5053047;28;20054;-69
2022/08/07 12:32:36;;;;;;;4.00;2.67;;;25.20;74.90;;;;;;5073950;28;20040;-67
2022/08/07 12:35:05;;;;;;;4.30;2.80;;;25.00;74.40;;;;;;5090872;28;20040;-70
2022/08/07 12:37:32;;;;;;;5.38;2.72;;;24.80;76.60;;;;;;5092890;28;20063;-69
2022/08/07 12:40:01;;;;;;;4.13;2.78;;;24.70;78.80;;;;;;5074751;28;20044;-66
2022/08/07 12:42:32;;;;;;;4.25;2.50;;;24.80;76.30;;;;;;5087450;28;20103;-71
2022/08/07 12:45:03;;;;;;;4.35;2.50;;;24.60;75.40;;;;;;5113342;28;20067;-71
2022/08/07 12:48:10;;;;;;;3.05;2.60;;;24.60;76.90;;;;;;5113061;28;20059;-70
2022/08/07 12:51:03;;;;;;;3.40;2.67;;;24.70;77.00;;;;;;5111665;28;20044;-70
2022/08/07 12:53:40;;;;;;;7.15;2.80;;;24.90;77.90;;;;;;5102401;28;20051;-66
2022/08/07 12:56:18;;;;;;;5.10;2.30;;;24.90;78.80;;;;;;5107761;28;20043;-68
2022/08/07 12:58:46;;;;;;;4.40;2.00;;;24.80;77.50;;;;;;5112710;28;20113;-71
2022/08/07 13:01:24;;;;;;;4.40;1.92;;;24.80;77.20;;;;;;5108331;28;20050;-70
2022/08/07 13:03:56;;;;;;;3.30;1.70;;;24.60;72.90;;;;;;5100624;28;20044;-69
2022/08/07 13:06:46;;;;;;;3.70;1.88;;;24.50;73.70;;;;;;5092492;28;20070;-68
2022/08/07 13:09:30;;;;;;;3.83;1.83;;;24.40;73.90;;;;;;5090880;28;20058;-69
2022/08/07 13:12:22;;;;;;;3.78;1.58;;;24.30;71.40;;;;;;5074307;28;20520;-67
2022/08/07 13:14:48;;;;;;;2.85;1.60;;;24.30;71.90;;;;;;5104282;28;20038;-67
2022/08/07 13:17:30;;;;;;;3.25;1.70;;;24.30;73.40;;;;;;5108782;28;20028;-68
2022/08/07 13:20:17;;;;;;;2.65;1.70;;;24.30;72.00;;;;;;5090206;28;20113;-67
2022/08/07 13:22:58;;;;;;;2.40;1.40;;;24.20;70.70;;;;;;5107401;28;20436;-67
2022/08/07 13:25:33;;;;;;;3.05;1.33;;;24.20;70.70;;;;;;5087299;28;20126;-66